Aeroporto :
LOGIN :

Iscrizione | Disclaimer

   EN    FR    IT 

 










Sommario :    VFR   VFR Marginale   IFR   IFR Intensivo   IFR Molto Intensivo
Visibilità : 
Base nubi : 
>= 8 km
>= 3000ft
5 / 8 km
1000 / 3000 ft
1500m / 5 km
500 / 1000 ft
800 / 1500m
200 / 500 ft
< 800m
< 200 ft
Simboli :   Temporali  Nebbia  Neve Forte  Precipitazioni Forti  Vento > 20 kt
SIGMETs :   Varie  Temporali  Ghiacco  Turbolenza  Onda orograficha  Ceneri Vulcaniche






- Altitudine del aeroporto : 84 ft


LFBC - Cazaux

ULTIMO METAR :
  • 220500Z AUTO 00000KT 9999 ///CB 17/17 Q1015 BECMG FEW016 BKN070

METARs OBSOLETI :
  • 220430Z AUTO 02002KT CAVOK 18/17 Q1015
  • 220400Z AUTO 35001KT 9999 FEW016 OVC076 18/17 Q1015
  • 220330Z AUTO 34002KT 9999 -RA NSC 18/17 Q1015
  • 220300Z AUTO 31003KT 280V340 CAVOK 18/17 Q1015
  • 220230Z AUTO 33003KT 9999 ///TCU 18/17 Q1015

TAF AMD TAF LFBC
Valido dal 22 a 04 ore il 23 a 03 ore UTC


220420Z 2204/2303 VRB02KT 9999 FEW016 BKN070
TEMPO 2300/2303 0800 BCFG



MetMap, La meteo Aeronautica in un colpo d'occhio ! - Copyright ORBIFLY Dicembre 2007 - Disclaimer

ORBIFLY MET'MAP TEAM :

Programmazione e sviluppo : Alexandra Zaïnal
Concezione : Baudouin d'Aumeries
Aiuto per la programmazione : Marc-Olivier Méhu
Supporto tecnico e logistico : Manuel Goepfert
Aiuto per la traduzione : Arnaldo La Scala

Contatto : metmap@orbifly.com




FONTI E CREDITI :

   NOAA